Terminal Aerodrome Forecast
Issued by NWS

Home | Current Version | Previous Version | Text Only | Print | Product List | Glossary On
Versions: 1 2 3 4 5 6 7 8 9 10 11 12 13 14
000
FTUS43 KDTX 240213 AAA
TAFDET
TAF AMD
KDET 240213Z 2402/2424 20005KT P6SM OVC045
     FM240500 20005KT P6SM SKC
     FM241700 22013G20KT P6SM SCT100 BKN200
     FM242300 20013KT P6SM SCT045 OVC100=

USA.gov is the U.S. government's official web portal to all federal, state and local government web resources and services.